Time;durP1;ratioP1;P1;durP2;ratioP2;P2;SDS_P1;SDS_P2;PMS_P1;PMS_P2;Temp;Humidity;BMP_temperature;BMP_pressure;BME280_temperature;BME280_humidity;BME280_pressure;Samples;Min_cycle;Max_cycle;Signal;HPM_P1;HPM_P2
2022/05/09 00:01:35;;;;;;;16.98;11.07;;;;;;;12.16;100.00;97225.06;4983114;28;20125;-67
2022/05/09 00:04:00;;;;;;;15.40;10.82;;;;;;;12.08;100.00;97226.88;4965937;28;20042;-67
2022/05/09 00:06:26;;;;;;;18.48;11.93;;;;;;;12.09;100.00;97227.69;4959468;28;20042;-66
2022/05/09 00:08:51;;;;;;;15.85;11.02;;;;;;;12.08;100.00;97237.84;4965489;28;20109;-67
2022/05/09 00:11:17;;;;;;;16.17;11.90;;;;;;;12.03;100.00;97229.94;4977358;28;20518;-67
2022/05/09 00:13:43;;;;;;;16.42;11.77;;;;;;;12.03;100.00;97233.47;4965396;28;20030;-67
2022/05/09 00:16:09;;;;;;;15.80;11.40;;;;;;;12.14;100.00;97225.44;4959746;28;20038;-67
2022/05/09 00:18:35;;;;;;;16.98;11.82;;;;;;;12.11;100.00;97228.09;4983577;28;20073;-68
2022/05/09 00:21:00;;;;;;;16.20;11.85;;;;;;;12.07;100.00;97225.28;4984586;28;20623;-67
2022/05/09 00:23:26;;;;;;;15.77;11.38;;;;;;;12.06;100.00;97220.94;4961551;28;20455;-67
2022/05/09 00:25:51;;;;;;;15.38;11.25;;;;;;;11.98;100.00;97214.53;4984471;28;20042;-67
2022/05/09 00:28:18;;;;;;;15.80;11.35;;;;;;;11.94;100.00;97212.88;4979137;28;20105;-67
2022/05/09 00:30:43;;;;;;;18.17;11.65;;;;;;;11.90;100.00;97209.25;4982937;28;20100;-68
2022/05/09 00:33:09;;;;;;;17.05;12.27;;;;;;;11.93;100.00;97219.53;4960296;28;20054;-67
2022/05/09 00:35:36;;;;;;;17.50;12.00;;;;;;;11.84;100.00;97212.28;4948478;28;20070;-68
2022/05/09 00:38:01;;;;;;;16.85;12.13;;;;;;;11.75;100.00;97213.66;4983019;28;20569;-67
2022/05/09 00:40:27;;;;;;;15.02;12.10;;;;;;;11.75;100.00;97206.22;4977986;28;20074;-67
2022/05/09 00:42:54;;;;;;;14.55;11.20;;;;;;;11.72;100.00;97204.22;4982593;28;20038;-66
2022/05/09 00:45:23;;;;;;;15.35;11.75;;;;;;;11.65;100.00;97210.34;4940468;28;20054;-68
2022/05/09 00:47:49;;;;;;;19.27;12.97;;;;;;;11.63;100.00;97198.94;4980392;28;20038;-67
2022/05/09 00:50:19;;;;;;;18.15;13.18;;;;;;;11.64;100.00;97199.72;4976738;28;20296;-67
2022/05/09 00:52:50;;;;;;;18.45;12.32;;;;;;;11.57;100.00;97194.88;4982916;28;20456;-68
2022/05/09 00:55:27;;;;;;;21.90;13.70;;;;;;;11.53;100.00;97196.78;4977934;28;20042;-68
2022/05/09 00:58:04;;;;;;;16.20;12.38;;;;;;;11.59;100.00;97194.53;4983977;28;20038;-68
2022/05/09 01:00:30;;;;;;;21.10;12.73;;;;;;;11.57;100.00;97202.31;4982170;28;20054;-68
2022/05/09 01:03:01;;;;;;;20.00;12.60;;;;;;;11.69;100.00;97199.44;4983523;28;20447;-67
2022/05/09 01:05:29;;;;;;;14.65;12.18;;;;;;;11.76;100.00;97201.53;4978037;28;20057;-68
2022/05/09 01:07:58;;;;;;;19.17;14.20;;;;;;;11.75;100.00;97192.50;4983115;28;20446;-68
2022/05/09 01:10:29;;;;;;;17.42;13.45;;;;;;;11.70;100.00;97201.00;4978300;28;20490;-67
2022/05/09 01:12:55;;;;;;;19.80;13.07;;;;;;;11.66;100.00;97197.41;4982666;28;20039;-68
2022/05/09 01:15:22;;;;;;;18.63;13.32;;;;;;;11.65;100.00;97201.31;4986053;28;20042;-69
2022/05/09 01:17:50;;;;;;;16.90;13.43;;;;;;;11.64;100.00;97196.97;4990671;28;20082;-68
2022/05/09 01:20:17;;;;;;;17.38;13.05;;;;;;;11.63;100.00;97195.38;4968003;28;20046;-67
2022/05/09 01:22:42;;;;;;;18.20;12.48;;;;;;;11.61;100.00;97197.69;4981828;28;20042;-68
2022/05/09 01:25:11;;;;;;;17.65;13.60;;;;;;;11.57;100.00;97205.84;4951713;28;20507;-68
2022/05/09 01:27:40;;;;;;;15.97;12.53;;;;;;;11.50;100.00;97207.66;4989085;28;20141;-68
2022/05/09 01:30:19;;;;;;;19.60;14.20;;;;;;;11.45;100.00;97209.56;4996114;28;20038;-69
2022/05/09 01:32:56;;;;;;;20.48;14.13;;;;;;;11.50;100.00;97205.72;4956163;28;20135;-68
2022/05/09 01:35:28;;;;;;;24.83;13.85;;;;;;;11.53;100.00;97195.97;4973031;28;22534;-68
2022/05/09 01:38:09;;;;;;;16.92;13.02;;;;;;;11.61;100.00;97208.66;4981773;28;20046;-68
2022/05/09 01:40:35;;;;;;;20.05;13.55;;;;;;;11.60;100.00;97209.84;4982299;28;20154;-68
2022/05/09 01:43:00;;;;;;;17.58;13.07;;;;;;;11.60;100.00;97207.09;4980628;28;20470;-69
2022/05/09 01:45:26;;;;;;;18.13;13.40;;;;;;;11.57;100.00;97213.31;4974274;28;20050;-68
2022/05/09 01:50:35;;;;;;;18.25;13.65;;;;;;;11.41;100.00;97222.38;4982497;28;20045;-66
2022/05/09 01:53:00;;;;;;;19.48;13.50;;;;;;;11.32;100.00;97212.78;4978554;28;20042;-68
2022/05/09 01:55:25;;;;;;;19.65;14.30;;;;;;;11.24;100.00;97212.63;4987193;28;20057;-69
2022/05/09 01:57:51;;;;;;;18.77;14.15;;;;;;;11.20;100.00;97214.50;4996590;28;20042;-66
2022/05/09 02:00:18;;;;;;;19.73;15.13;;;;;;;11.15;100.00;97220.25;4976421;28;20078;-67
2022/05/09 02:02:43;;;;;;;19.77;14.93;;;;;;;11.13;100.00;97222.56;4981091;28;20046;-66
2022/05/09 02:05:09;;;;;;;20.85;14.60;;;;;;;11.10;100.00;97215.81;4959258;28;20561;-68
2022/05/09 02:07:35;;;;;;;19.73;15.30;;;;;;;11.03;100.00;97212.94;4979943;28;20143;-67
2022/05/09 02:10:01;;;;;;;21.75;14.52;;;;;;;11.04;100.00;97221.97;4975437;28;20129;-68
2022/05/09 02:12:27;;;;;;;21.50;15.05;;;;;;;11.18;100.00;97221.47;4977207;28;20039;-67
2022/05/09 02:14:53;;;;;;;19.67;14.50;;;;;;;11.19;100.00;97215.63;4980322;28;20053;-68
2022/05/09 02:17:18;;;;;;;20.30;14.32;;;;;;;11.22;100.00;97217.66;4966049;28;20042;-68
2022/05/09 02:19:44;;;;;;;21.50;15.13;;;;;;;11.14;100.00;97210.44;4974475;28;20039;-68
2022/05/09 02:22:11;;;;;;;21.83;15.57;;;;;;;11.15;100.00;97216.72;4976946;28;20053;-66
2022/05/09 02:24:38;;;;;;;23.17;15.40;;;;;;;11.18;100.00;97213.25;4981522;28;20048;-68
2022/05/09 02:27:05;;;;;;;20.98;15.07;;;;;;;11.12;100.00;97211.94;4977808;28;20403;-69
2022/05/09 02:29:31;;;;;;;24.15;16.23;;;;;;;11.12;100.00;97214.69;4980404;28;20050;-68
2022/05/09 02:31:57;;;;;;;21.70;15.77;;;;;;;11.10;100.00;97220.53;4976505;28;20052;-67
2022/05/09 02:34:24;;;;;;;22.73;16.38;;;;;;;11.02;100.00;97216.84;4959005;28;20400;-68
2022/05/09 02:36:49;;;;;;;25.27;17.23;;;;;;;10.98;100.00;97212.41;4954551;28;20112;-68
2022/05/09 02:39:15;;;;;;;24.33;16.73;;;;;;;11.04;100.00;97211.00;4956905;28;20488;-68
2022/05/09 02:41:41;;;;;;;24.35;17.05;;;;;;;11.00;100.00;97215.59;4960429;28;20555;-68
2022/05/09 02:44:07;;;;;;;32.00;17.58;;;;;;;10.99;100.00;97220.28;4957195;28;20072;-68
2022/05/09 02:46:33;;;;;;;21.70;16.60;;;;;;;10.98;100.00;97229.63;4987818;28;20050;-68
2022/05/09 02:48:59;;;;;;;22.42;16.73;;;;;;;11.03;100.00;97217.63;4987583;28;20052;-68
2022/05/09 02:51:27;;;;;;;28.30;17.25;;;;;;;10.99;100.00;97220.28;4959342;28;20077;-67
2022/05/09 02:53:54;;;;;;;21.27;16.33;;;;;;;11.03;100.00;97214.88;4971782;28;20514;-67
2022/05/09 02:56:20;;;;;;;23.40;18.17;;;;;;;11.12;100.00;97217.44;4939347;28;20101;-68
2022/05/09 02:58:46;;;;;;;26.80;16.58;;;;;;;11.04;100.00;97211.78;4945036;28;20066;-68
2022/05/09 03:01:11;;;;;;;23.90;16.67;;;;;;;11.07;100.00;97216.56;4963449;28;20081;-67
2022/05/09 03:06:21;;;;;;;25.73;17.90;;;;;;;10.95;100.00;97224.06;4975921;28;20117;-68
2022/05/09 03:08:47;;;;;;;25.48;17.83;;;;;;;10.92;100.00;97220.13;4981308;28;20042;-67
2022/05/09 03:11:12;;;;;;;25.63;17.23;;;;;;;10.89;100.00;97224.38;4976164;28;20415;-67
2022/05/09 03:13:39;;;;;;;30.15;18.33;;;;;;;10.90;100.00;97211.47;4980065;28;20049;-67
2022/05/09 03:16:04;;;;;;;24.23;17.55;;;;;;;10.95;100.00;97226.81;4974536;28;20038;-67
2022/05/09 03:18:31;;;;;;;26.00;17.63;;;;;;;10.89;100.00;97218.06;4981715;28;20491;-67
2022/05/09 03:20:57;;;;;;;27.35;18.83;;;;;;;10.87;100.00;97225.88;4945899;28;20039;-68
2022/05/09 03:23:22;;;;;;;26.00;18.65;;;;;;;10.84;100.00;97221.91;4962755;28;20051;-68
2022/05/09 03:25:48;;;;;;;28.27;18.40;;;;;;;10.96;100.00;97226.47;4979067;28;20042;-67
2022/05/09 03:28:21;;;;;;;24.80;17.63;;;;;;;10.88;100.00;97225.50;4967753;28;20058;-69
2022/05/09 03:30:48;;;;;;;29.08;17.67;;;;;;;10.87;100.00;97217.63;4978178;28;20069;-66
2022/05/09 03:33:14;;;;;;;26.67;18.40;;;;;;;10.79;100.00;97216.69;4967508;28;20059;-67
2022/05/09 03:35:41;;;;;;;26.55;19.25;;;;;;;10.76;100.00;97220.13;4978013;28;20038;-70
2022/05/09 03:38:07;;;;;;;27.40;18.83;;;;;;;10.89;100.00;97212.59;4939325;28;20039;-69
2022/05/09 03:40:34;;;;;;;29.48;19.23;;;;;;;10.81;100.00;97221.81;4968182;28;20462;-68
2022/05/09 03:43:00;;;;;;;29.58;18.38;;;;;;;10.75;100.00;97223.22;4993740;28;20100;-68
2022/05/09 03:45:26;;;;;;;27.38;18.83;;;;;;;10.75;100.00;97221.28;4987259;28;20043;-68
2022/05/09 03:47:52;;;;;;;25.02;17.95;;;;;;;10.76;100.00;97213.88;4982701;28;20748;-67
2022/05/09 03:50:17;;;;;;;26.95;18.65;;;;;;;10.81;100.00;97221.81;4960404;28;20184;-67
2022/05/09 03:52:43;;;;;;;27.98;19.88;;;;;;;10.87;100.00;97223.13;4977693;28;20096;-67
2022/05/09 03:55:09;;;;;;;38.10;19.92;;;;;;;10.78;100.00;97231.53;4969496;28;20404;-67
2022/05/09 03:57:47;;;;;;;27.40;17.50;;;;;;;10.77;100.00;97223.66;4980361;28;20061;-68
2022/05/09 04:00:14;;;;;;;27.30;19.75;;;;;;;10.83;100.00;97225.78;4971916;28;20061;-66
2022/05/09 04:02:41;;;;;;;25.52;18.40;;;;;;;10.84;100.00;97230.13;4979450;28;20068;-66
2022/05/09 04:05:08;;;;;;;27.15;18.13;;;;;;;10.88;100.00;97227.47;4970175;28;20399;-68
2022/05/09 04:07:34;;;;;;;27.27;18.50;;;;;;;10.82;100.00;97229.69;4980536;28;20038;-68
2022/05/09 04:09:59;;;;;;;27.70;19.67;;;;;;;10.91;100.00;97240.44;4964166;28;20038;-69
2022/05/09 04:12:25;;;;;;;26.10;18.02;;;;;;;10.96;100.00;97236.63;4974937;28;20057;-69
2022/05/09 04:17:35;;;;;;;27.13;17.85;;;;;;;11.00;100.00;97234.78;4972753;28;20140;-70
2022/05/09 04:20:00;;;;;;;27.40;18.23;;;;;;;11.03;100.00;97243.06;4981108;28;20166;-68
2022/05/09 04:22:26;;;;;;;26.63;18.17;;;;;;;11.15;100.00;97238.66;4967701;28;20050;-69
2022/05/09 04:24:51;;;;;;;27.35;18.35;;;;;;;11.18;100.00;97246.16;4979751;28;20136;-69
2022/05/09 04:27:17;;;;;;;25.67;18.55;;;;;;;11.19;100.00;97240.31;4958633;28;20478;-68
2022/05/09 04:29:42;;;;;;;25.65;17.88;;;;;;;11.23;100.00;97246.66;4979257;28;20046;-69
2022/05/09 04:32:08;;;;;;;30.92;18.80;;;;;;;11.23;100.00;97245.88;4966725;28;20129;-69
2022/05/09 04:34:33;;;;;;;26.75;18.80;;;;;;;11.25;100.00;97246.31;4978670;28;20096;-69
2022/05/09 04:36:59;;;;;;;24.60;16.00;;;;;;;11.26;100.00;97256.91;4970701;28;20411;-68
2022/05/09 04:39:24;;;;;;;27.75;17.58;;;;;;;11.21;100.00;97254.44;4972353;28;20078;-69
2022/05/09 04:41:50;;;;;;;26.30;18.08;;;;;;;11.17;100.00;97258.28;4983681;28;20113;-68
2022/05/09 04:44:15;;;;;;;24.35;17.05;;;;;;;11.19;100.00;97256.75;4961640;28;20478;-69
2022/05/09 04:46:42;;;;;;;25.48;18.00;;;;;;;11.26;100.00;97254.19;4975898;28;20125;-69
2022/05/09 04:49:08;;;;;;;24.77;18.58;;;;;;;11.29;100.00;97247.19;4979269;28;20054;-69
2022/05/09 04:51:33;;;;;;;27.38;18.35;;;;;;;11.38;100.00;97247.78;4966794;28;20406;-70
2022/05/09 04:53:58;;;;;;;23.67;16.52;;;;;;;11.49;100.00;97259.00;4977990;28;20042;-70
2022/05/09 04:56:24;;;;;;;26.05;17.40;;;;;;;11.53;100.00;97259.84;4979439;28;20540;-70
2022/05/09 04:58:49;;;;;;;21.92;16.10;;;;;;;11.71;100.00;97257.50;4984616;28;20050;-70
2022/05/09 05:01:14;;;;;;;22.48;15.63;;;;;;;12.15;100.00;97256.41;4976173;28;20191;-68
2022/05/09 05:03:40;;;;;;;21.13;15.40;;;;;;;12.35;100.00;97259.94;5003281;28;20054;-69
2022/05/09 05:06:06;;;;;;;25.00;15.75;;;;;;;12.59;100.00;97258.81;4990571;28;20062;-69
2022/05/09 05:08:34;;;;;;;22.80;15.35;;;;;;;12.60;100.00;97255.69;4988706;28;20066;-69
2022/05/09 05:11:04;;;;;;;20.88;14.30;;;;;;;13.24;100.00;97260.63;4969247;28;20038;-68
2022/05/09 05:13:32;;;;;;;17.67;13.85;;;;;;;13.39;100.00;97264.41;4985034;28;20450;-67
2022/05/09 05:15:58;;;;;;;18.48;13.57;;;;;;;13.49;100.00;97262.97;4981110;28;20045;-67
2022/05/09 05:18:26;;;;;;;19.20;14.18;;;;;;;13.37;100.00;97269.47;4970572;28;20920;-69
2022/05/09 05:20:52;;;;;;;18.63;13.60;;;;;;;13.91;100.00;97268.22;4983622;28;20042;-68
2022/05/09 05:23:18;;;;;;;19.30;13.95;;;;;;;13.82;100.00;97275.19;4961276;28;20113;-67
2022/05/09 05:25:45;;;;;;;17.52;13.85;;;;;;;13.75;100.00;97273.13;4982572;28;20133;-69
2022/05/09 05:28:12;;;;;;;19.33;13.43;;;;;;;13.95;100.00;97268.28;4979135;28;20038;-66
2022/05/09 05:30:38;;;;;;;18.27;12.77;;;;;;;14.74;100.00;97266.38;4997063;28;20074;-68
2022/05/09 05:33:04;;;;;;;16.90;12.68;;;;;;;14.87;100.00;97264.94;4983796;28;20439;-69
2022/05/09 05:35:30;;;;;;;18.13;13.00;;;;;;;15.03;100.00;97264.66;4983323;28;20042;-67
2022/05/09 05:37:55;;;;;;;17.05;12.60;;;;;;;14.66;100.00;97273.00;4949797;28;20074;-66
2022/05/09 05:40:21;;;;;;;16.95;13.05;;;;;;;14.82;100.00;97275.50;4953580;28;20052;-66
2022/05/09 05:42:52;;;;;;;19.23;13.20;;;;;;;15.01;100.00;97275.28;4981633;28;20129;-65
2022/05/09 05:45:21;;;;;;;16.10;12.73;;;;;;;14.82;100.00;97281.81;4976364;28;20081;-70
2022/05/09 05:47:47;;;;;;;16.52;12.70;;;;;;;15.01;100.00;97280.78;4924860;28;20051;-66
2022/05/09 05:50:14;;;;;;;16.95;11.93;;;;;;;15.45;98.20;97288.22;4978035;28;20117;-66
2022/05/09 05:52:39;;;;;;;17.70;13.38;;;;;;;15.05;99.50;97280.81;4983246;28;20046;-67
2022/05/09 05:55:06;;;;;;;21.30;13.57;;;;;;;15.15;100.00;97299.44;4978075;28;20049;-67
2022/05/09 05:57:35;;;;;;;19.50;12.63;;;;;;;15.33;100.00;97290.50;4983848;28;20108;-68
2022/05/09 06:00:12;;;;;;;18.35;12.85;;;;;;;15.59;99.72;97292.22;4981928;28;20034;-68
2022/05/09 06:02:38;;;;;;;18.98;13.30;;;;;;;15.38;98.24;97299.22;4981149;28;20132;-68
2022/05/09 06:05:06;;;;;;;17.90;13.20;;;;;;;15.00;100.00;97297.72;4980731;28;20106;-68
2022/05/09 06:07:32;;;;;;;16.98;13.20;;;;;;;15.05;100.00;97297.38;4983867;28;20085;-69
2022/05/09 06:09:57;;;;;;;16.08;12.32;;;;;;;15.54;98.35;97298.94;4964184;28;20051;-69
2022/05/09 06:12:23;;;;;;;19.10;13.20;;;;;;;15.20;99.87;97306.56;4974513;28;20113;-67
2022/05/09 06:15:24;;;;;;;18.85;12.88;;;;;;;15.18;100.00;97298.69;4977921;28;20046;-68
2022/05/09 06:17:36;;;;;;;19.33;13.15;;;;;;;15.49;97.10;97302.03;4962752;28;20046;-67
2022/05/09 06:20:08;;;;;;;20.45;13.65;;;;;;;15.13;99.16;97303.75;4964117;28;20043;-72
2022/05/09 06:22:36;;;;;;;20.02;13.27;;;;;;;14.93;100.00;97305.94;4965585;28;20058;-68
2022/05/09 06:25:03;;;;;;;21.05;13.25;;;;;;;15.37;96.95;97307.88;4953101;28;20049;-68
2022/05/09 06:27:29;;;;;;;18.00;13.90;;;;;;;15.08;98.96;97313.16;4962704;28;20047;-68
2022/05/09 06:29:54;;;;;;;19.85;14.82;;;;;;;15.23;98.53;97309.38;4963784;28;20388;-67
2022/05/09 06:32:24;;;;;;;18.33;13.27;;;;;;;15.10;99.54;97308.84;4970474;28;20098;-67
2022/05/09 06:34:50;;;;;;;18.15;12.90;;;;;;;15.24;98.89;97316.44;4945931;28;20039;-67
2022/05/09 06:37:15;;;;;;;19.35;12.93;;;;;;;15.20;100.00;97318.41;4950487;28;20043;-67
2022/05/09 06:39:41;;;;;;;16.88;12.60;;;;;;;15.28;97.66;97311.75;4963929;28;20047;-67
2022/05/09 06:42:07;;;;;;;17.02;13.48;;;;;;;15.41;97.68;97322.47;4964320;28;20061;-67
2022/05/09 06:44:35;;;;;;;17.30;12.82;;;;;;;15.70;95.61;97322.66;4967990;28;20126;-67
2022/05/09 06:47:01;;;;;;;18.23;13.30;;;;;;;15.38;96.96;97324.06;4961267;28;20043;-67
2022/05/09 06:49:27;;;;;;;21.08;13.45;;;;;;;15.46;96.95;97331.19;4958056;28;20134;-67
2022/05/09 06:51:52;;;;;;;20.08;13.60;;;;;;;15.32;96.56;97328.31;4961649;28;20058;-66
2022/05/09 06:54:21;;;;;;;20.02;13.60;;;;;;;15.49;96.22;97335.16;4949521;28;20051;-67
2022/05/09 06:56:47;;;;;;;18.30;13.00;;;;;;;16.02;94.81;97331.16;4960942;28;20130;-67
2022/05/09 06:59:12;;;;;;;16.63;12.38;;;;;;;16.78;89.90;97330.25;4937751;28;20469;-68
2022/05/09 07:01:38;;;;;;;15.35;12.25;;;;;;;16.51;90.47;97331.75;4951017;28;20051;-67
2022/05/09 07:04:04;;;;;;;17.50;12.30;;;;;;;16.42;92.00;97330.16;4950355;28;20047;-69
2022/05/09 07:06:29;;;;;;;18.67;12.80;;;;;;;17.47;84.07;97333.09;4962763;28;20122;-67
2022/05/09 07:08:55;;;;;;;14.15;11.52;;;;;;;17.35;84.78;97337.03;4956753;28;20079;-68
2022/05/09 07:11:20;;;;;;;18.05;12.80;;;;;;;17.19;87.17;97335.44;4953363;28;20129;-68
2022/05/09 07:13:45;;;;;;;16.67;11.70;;;;;;;17.38;86.37;97336.25;4956956;28;20488;-69
2022/05/09 07:16:11;;;;;;;14.85;11.77;;;;;;;17.92;81.62;97334.22;4950952;28;20050;-67
2022/05/09 07:18:38;;;;;;;15.00;11.20;;;;;;;18.02;80.72;97338.16;4957024;28;20454;-68
2022/05/09 07:21:05;;;;;;;15.18;11.60;;;;;;;17.80;83.14;97334.63;4957191;28;20043;-69
2022/05/09 07:23:31;;;;;;;19.00;11.90;;;;;;;17.29;84.80;97339.41;4957803;28;20055;-66
2022/05/09 07:25:56;;;;;;;15.15;10.63;;;;;;;18.70;78.37;97337.06;4954115;28;20396;-69
2022/05/09 07:28:22;;;;;;;16.70;11.75;;;;;;;17.43;80.67;97341.41;4955617;28;20080;-68
2022/05/09 07:30:49;;;;;;;14.95;11.88;;;;;;;17.41;82.27;97327.13;4960249;28;20060;-67
2022/05/09 07:33:17;;;;;;;15.25;10.95;;;;;;;17.52;81.38;97333.47;4952301;28;20046;-68
2022/05/09 07:35:44;;;;;;;14.20;10.75;;;;;;;19.18;74.28;97343.94;4960277;28;20077;-65
2022/05/09 07:38:11;;;;;;;13.57;10.35;;;;;;;19.39;74.15;97337.41;4939016;28;20121;-67
2022/05/09 07:40:38;;;;;;;15.82;11.05;;;;;;;17.25;83.28;97341.41;4953970;28;20705;-66
2022/05/09 07:43:08;;;;;;;14.85;10.80;;;;;;;17.80;81.37;97340.16;4946396;28;20038;-68
2022/05/09 07:45:33;;;;;;;14.30;11.07;;;;;;;17.84;79.40;97338.16;4961916;28;20046;-67
2022/05/09 07:47:59;;;;;;;13.32;10.57;;;;;;;18.59;76.92;97350.22;4960963;28;20046;-67
2022/05/09 07:50:25;;;;;;;16.58;10.52;;;;;;;18.81;75.69;97348.91;4957491;28;20066;-66
2022/05/09 07:52:50;;;;;;;14.10;10.77;;;;;;;18.52;76.77;97349.03;4953936;28;20510;-66
2022/05/09 07:55:16;;;;;;;13.63;10.60;;;;;;;20.73;66.85;97343.94;4964193;28;20070;-66
2022/05/09 07:57:41;;;;;;;14.35;10.10;;;;;;;19.89;71.74;97338.97;4959540;28;20046;-67
2022/05/09 08:00:07;;;;;;;11.98;9.18;;;;;;;20.79;68.78;97345.03;4956324;28;20407;-68
2022/05/09 08:02:33;;;;;;;13.43;9.63;;;;;;;19.82;67.82;97345.38;4952554;28;20051;-67
2022/05/09 08:05:00;;;;;;;11.40;9.05;;;;;;;19.32;71.08;97357.72;4960666;28;20051;-67
2022/05/09 08:07:25;;;;;;;15.27;10.68;;;;;;;17.01;80.97;97345.72;4943198;28;20040;-67
2022/05/09 08:09:50;;;;;;;16.10;13.13;;;;;;;18.19;76.33;97357.91;4949539;28;20062;-67
2022/05/09 08:12:16;;;;;;;14.20;10.70;;;;;;;17.86;77.77;97355.22;4957727;28;20046;-66
2022/05/09 08:14:43;;;;;;;13.40;9.20;;;;;;;17.50;80.04;97349.72;4963252;28;20078;-66
2022/05/09 08:17:09;;;;;;;15.65;10.30;;;;;;;16.48;85.17;97347.16;4959481;28;20051;-67
2022/05/09 08:19:36;;;;;;;15.48;10.35;;;;;;;16.42;86.82;97354.22;4965785;28;20042;-66
2022/05/09 08:22:02;;;;;;;13.23;9.88;;;;;;;17.50;81.41;97360.78;4958304;28;20166;-68
2022/05/09 08:24:28;;;;;;;14.98;9.70;;;;;;;17.25;82.02;97354.44;4959428;28;20198;-66
2022/05/09 08:26:54;;;;;;;11.18;8.77;;;;;;;17.04;80.71;97353.25;4964311;28;20049;-67
2022/05/09 08:29:19;;;;;;;13.57;10.40;;;;;;;16.78;83.02;97351.56;4960476;28;20043;-66
2022/05/09 08:31:48;;;;;;;13.02;10.30;;;;;;;16.42;85.90;97349.50;4962885;28;20129;-68
2022/05/09 08:34:15;;;;;;;13.35;9.75;;;;;;;17.18;82.43;97347.72;4957299;28;20373;-69
2022/05/09 08:36:48;;;;;;;16.85;10.70;;;;;;;17.16;83.36;97347.34;4957909;28;20043;-66
2022/05/09 08:39:15;;;;;;;11.57;9.82;;;;;;;17.16;84.24;97347.34;4970446;28;20097;-67
2022/05/09 08:41:49;;;;;;;16.73;10.07;;;;;;;16.62;85.20;97355.50;4968709;28;20066;-66
2022/05/09 08:44:24;;;;;;;14.93;10.40;;;;;;;16.51;86.64;97354.69;4962140;28;20567;-66
2022/05/09 08:47:28;;;;;;;18.33;13.40;;;;;;;17.60;85.45;97361.94;4961474;28;20054;-66
2022/05/09 08:50:13;;;;;;;18.52;12.65;;;;;;;18.20;82.67;97356.72;4961788;28;20468;-66
2022/05/09 08:52:42;;;;;;;17.02;12.25;;;;;;;19.62;74.71;97359.81;4962623;28;20054;-66
2022/05/09 08:55:10;;;;;;;16.02;10.80;;;;;;;20.19;71.43;97361.28;4958871;28;20516;-66
2022/05/09 08:57:47;;;;;;;14.73;10.38;;;;;;;20.23;69.96;97362.03;4962834;28;20054;-67
2022/05/09 09:00:16;;;;;;;14.27;10.93;;;;;;;19.20;73.59;97369.31;4956290;28;20109;-66
2022/05/09 09:02:56;;;;;;;14.90;10.95;;;;;;;19.36;73.45;97371.59;4962879;28;20046;-68
2022/05/09 09:05:24;;;;;;;18.23;11.35;;;;;;;20.04;70.33;97373.75;4962394;28;20547;-67
2022/05/09 09:08:40;;;;;;;16.73;11.82;;;;;;;20.75;66.05;97374.94;4972215;28;20046;-66
2022/05/09 09:11:22;;;;;;;14.60;11.00;;;;;;;21.85;63.02;97370.09;4950452;28;20046;-66
2022/05/09 09:14:06;;;;;;;15.05;10.85;;;;;;;22.01;60.77;97372.97;4965641;28;20046;-66
2022/05/09 09:16:59;;;;;;;14.15;10.98;;;;;;;21.22;63.79;97376.28;4973110;28;20512;-67
2022/05/09 09:19:51;;;;;;;16.27;10.60;;;;;;;20.84;66.97;97377.22;4985439;28;20049;-66
2022/05/09 09:22:18;;;;;;;15.77;12.40;;;;;;;20.69;66.78;97378.59;4977624;28;20061;-67
2022/05/09 09:25:10;;;;;;;14.05;11.93;;;;;;;20.83;65.86;97378.41;4979357;28;20125;-66
2022/05/09 09:27:41;;;;;;;16.63;11.40;;;;;;;21.08;65.14;97380.84;4965733;28;20054;-66
2022/05/09 09:30:13;;;;;;;14.40;10.65;;;;;;;20.60;66.25;97379.09;4959907;28;20499;-67
2022/05/09 09:32:42;;;;;;;18.45;12.80;;;;;;;21.02;65.95;97371.38;4972872;28;20047;-66
2022/05/09 09:35:18;;;;;;;17.27;11.48;;;;;;;21.23;63.88;97378.66;4991086;28;20061;-68
2022/05/09 09:38:05;;;;;;;14.60;11.25;;;;;;;21.47;64.21;97376.69;4984300;28;20039;-66
2022/05/09 09:40:32;;;;;;;12.95;10.32;;;;;;;21.28;61.64;97375.34;4979579;28;20042;-66
2022/05/09 09:42:57;;;;;;;13.93;9.93;;;;;;;20.50;65.37;97374.44;4982055;28;20403;-67
2022/05/09 09:45:30;;;;;;;12.95;10.27;;;;;;;21.07;64.76;97362.56;4975871;28;20046;-67
2022/05/09 09:48:20;;;;;;;12.73;10.07;;;;;;;21.33;64.60;97374.88;4982195;28;20522;-68
2022/05/09 09:51:06;;;;;;;16.98;9.65;;;;;;;21.94;62.07;97364.75;4965495;28;20038;-68
2022/05/09 09:53:57;;;;;;;12.60;9.38;;;;;;;22.21;60.66;97361.06;4981941;28;20038;-67
2022/05/09 09:56:22;;;;;;;13.65;9.75;;;;;;;21.93;61.67;97365.94;4974313;28;20057;-67
2022/05/09 09:59:10;;;;;;;14.32;10.13;;;;;;;23.15;57.97;97363.50;4981435;28;20054;-67
2022/05/09 10:01:37;;;;;;;11.95;9.55;;;;;;;23.50;55.28;97366.69;4964915;28;20053;-66
2022/05/09 10:04:23;;;;;;;14.93;11.52;;;;;;;23.08;56.16;97369.25;4976412;28;20178;-66
2022/05/09 10:07:12;;;;;;;13.07;11.05;;;;;;;22.45;58.53;97362.59;4980701;28;20041;-66
2022/05/09 10:09:43;;;;;;;14.18;9.70;;;;;;;22.35;58.50;97358.03;4978013;28;20038;-65
2022/05/09 10:12:18;;;;;;;13.90;10.15;;;;;;;22.86;56.79;97360.53;4976416;28;20066;-67
2022/05/09 10:14:44;;;;;;;14.57;10.55;;;;;;;23.39;55.50;97361.34;4979746;28;20143;-66
2022/05/09 10:17:15;;;;;;;17.88;11.82;;;;;;;22.62;56.96;97357.88;4975232;28;20248;-67
2022/05/09 10:19:41;;;;;;;13.55;11.50;;;;;;;21.82;60.61;97357.00;4979705;28;20046;-67
2022/05/09 10:25:17;;;;;;;14.13;11.15;;;;;;;21.98;59.32;97359.09;4974437;28;20472;-66
2022/05/09 10:27:44;;;;;;;14.07;11.15;;;;;;;21.68;61.84;97353.25;4979740;28;20109;-65
2022/05/09 10:30:29;;;;;;;15.48;11.30;;;;;;;21.69;61.42;97354.81;4959134;28;20052;-65
2022/05/09 10:33:00;;;;;;;13.63;10.35;;;;;;;20.89;63.35;97356.47;4981170;28;20042;-67
2022/05/09 10:35:49;;;;;;;11.75;9.15;;;;;;;20.33;66.43;97357.56;4975938;28;20050;-66
2022/05/09 10:38:20;;;;;;;12.15;9.23;;;;;;;20.85;64.07;97352.94;4975634;28;20193;-67
2022/05/09 10:40:50;;;;;;;14.40;9.88;;;;;;;20.63;63.68;97344.88;4981153;28;20412;-67
2022/05/09 10:43:28;;;;;;;10.85;8.98;;;;;;;20.50;65.62;97347.41;4976670;28;20453;-65
2022/05/09 10:45:54;;;;;;;14.38;9.32;;;;;;;21.30;62.84;97333.97;4970380;28;20046;-66
2022/05/09 10:48:34;;;;;;;12.07;9.02;;;;;;;21.35;63.16;97330.66;4982152;28;20129;-66
2022/05/09 10:51:49;;;;;;;12.75;8.50;;;;;;;22.24;60.92;97338.69;4981406;28;20046;-66
2022/05/09 10:54:37;;;;;;;12.55;9.23;;;;;;;21.98;60.54;97331.22;4974063;28;20044;-67
2022/05/09 10:57:16;;;;;;;14.23;9.13;;;;;;;22.59;57.25;97338.41;4977694;28;20043;-69
2022/05/09 10:59:42;;;;;;;11.68;9.10;;;;;;;22.12;59.12;97336.53;4980702;28;20045;-66
2022/05/09 11:02:24;;;;;;;11.38;9.27;;;;;;;21.83;61.20;97325.13;4975380;28;20519;-67
2022/05/09 11:04:49;;;;;;;11.68;9.18;;;;;;;22.36;60.37;97326.09;4962904;28;20057;-67
2022/05/09 11:07:49;;;;;;;11.40;8.70;;;;;;;22.46;60.24;97322.31;4974541;28;20059;-66
2022/05/09 11:10:32;;;;;;;15.55;8.75;;;;;;;22.50;58.98;97325.78;4959068;28;20043;-68
2022/05/09 11:13:06;;;;;;;11.80;9.45;;;;;;;21.51;60.90;97323.69;4978247;28;20046;-68
2022/05/09 11:15:43;;;;;;;12.27;9.93;;;;;;;20.94;64.75;97330.91;4976979;28;20069;-67
2022/05/09 11:18:37;;;;;;;17.17;10.20;;;;;;;20.41;66.16;97316.50;4972507;28;20069;-67
2022/05/09 11:21:25;;;;;;;12.60;9.75;;;;;;;20.64;66.36;97312.28;4975164;28;20050;-68
2022/05/09 11:24:26;;;;;;;14.80;10.13;;;;;;;20.74;64.72;97314.09;4979005;28;20628;-67
2022/05/09 11:27:08;;;;;;;15.30;9.75;;;;;;;21.12;65.46;97306.41;4915609;28;20042;-66
2022/05/09 11:29:36;;;;;;;11.07;9.23;;;;;;;20.95;64.68;97308.22;4977154;28;20438;-66
2022/05/09 11:32:14;;;;;;;12.38;9.45;;;;;;;20.95;66.58;97302.66;4976350;28;20034;-66
2022/05/09 11:34:58;;;;;;;12.18;9.20;;;;;;;21.16;65.63;97309.13;4979555;28;20460;-64
2022/05/09 11:37:38;;;;;;;14.23;10.60;;;;;;;20.88;64.64;97307.56;4973188;28;20081;-66